Time;durP1;ratioP1;P1;durP2;ratioP2;P2;SDS_P1;SDS_P2;PMS_P1;PMS_P2;Temp;Humidity;BMP_temperature;BMP_pressure;BME280_temperature;BME280_humidity;BME280_pressure;Samples;Min_cycle;Max_cycle;Signal;HPM_P1;HPM_P2
2022/06/23 00:00:36;;;;;;;8.10;5.83;;;22.50;73.30;;;;;;5055345;28;20564;-51
2022/06/23 00:03:05;;;;;;;10.00;6.93;;;22.50;73.50;;;;;;5034815;28;20516;-51
2022/06/23 00:05:39;;;;;;;12.40;6.93;;;22.50;73.60;;;;;;5052090;28;20460;-51
2022/06/23 00:08:13;;;;;;;10.00;6.73;;;22.50;73.80;;;;;;5036326;28;20454;-51
2022/06/23 00:10:48;;;;;;;12.03;7.60;;;22.40;74.10;;;;;;5041135;28;20550;-51
2022/06/23 00:13:21;;;;;;;11.80;8.30;;;22.50;74.40;;;;;;5053446;28;20540;-51
2022/06/23 00:15:50;;;;;;;13.60;8.60;;;22.50;74.60;;;;;;5054946;28;20472;-51
2022/06/23 00:18:22;;;;;;;13.53;7.80;;;22.50;75.00;;;;;;5036317;28;20888;-51
2022/06/23 00:20:59;;;;;;;15.60;8.37;;;22.40;75.30;;;;;;5055586;28;20471;-51
2022/06/23 00:23:31;;;;;;;14.93;8.90;;;22.40;75.40;;;;;;5052860;28;21249;-51
2022/06/23 00:26:07;;;;;;;13.33;9.40;;;22.40;75.60;;;;;;5039285;28;21128;-51
2022/06/23 00:28:40;;;;;;;16.90;11.10;;;22.40;75.90;;;;;;5034053;28;20919;-51
2022/06/23 00:31:22;;;;;;;16.27;10.70;;;22.50;76.10;;;;;;5028811;28;20537;-51
2022/06/23 00:33:49;;;;;;;18.40;13.07;;;22.50;76.50;;;;;;5035866;28;21167;-51
2022/06/23 00:36:32;;;;;;;23.23;13.33;;;22.50;76.80;;;;;;5051135;28;20535;-51
2022/06/23 00:39:00;;;;;;;17.40;11.20;;;22.50;77.00;;;;;;5053845;28;20548;-51
2022/06/23 00:41:31;;;;;;;13.40;10.23;;;22.50;77.00;;;;;;5039652;28;20473;-51
2022/06/23 00:44:13;;;;;;;16.40;10.10;;;22.50;76.80;;;;;;5055030;28;20478;-51
2022/06/23 00:46:48;;;;;;;15.93;10.10;;;22.50;76.80;;;;;;5054505;28;20462;-51
2022/06/23 00:49:24;;;;;;;15.63;10.60;;;22.50;76.70;;;;;;5020739;28;20461;-51
2022/06/23 00:52:00;;;;;;;17.43;11.60;;;22.50;76.90;;;;;;5048836;28;20461;-51
2022/06/23 00:54:51;;;;;;;20.67;12.90;;;22.50;77.10;;;;;;5053432;28;20568;-51
2022/06/23 00:57:35;;;;;;;18.57;10.90;;;22.50;77.40;;;;;;5053878;28;20461;-51
2022/06/23 01:00:22;;;;;;;18.17;12.13;;;22.40;77.60;;;;;;5033331;28;20484;-51
2022/06/23 01:02:58;;;;;;;18.13;12.23;;;22.40;77.70;;;;;;5052485;28;20504;-51
2022/06/23 01:05:49;;;;;;;17.50;12.40;;;22.40;77.90;;;;;;5052480;28;20543;-51
2022/06/23 01:08:21;;;;;;;18.80;12.77;;;22.30;78.00;;;;;;5056923;28;20837;-51
2022/06/23 01:10:58;;;;;;;16.17;12.30;;;22.30;78.00;;;;;;5032613;28;20496;-51
2022/06/23 01:13:39;;;;;;;14.63;11.47;;;22.30;78.10;;;;;;5050461;28;20469;-51
2022/06/23 01:16:38;;;;;;;22.20;12.80;;;22.20;78.10;;;;;;5052531;28;20465;-51
2022/06/23 01:19:29;;;;;;;17.80;10.30;;;22.20;78.10;;;;;;5026186;28;20461;-51
2022/06/23 01:22:01;;;;;;;24.30;11.53;;;22.20;78.20;;;;;;5053631;28;20611;-51
2022/06/23 01:25:05;;;;;;;20.03;11.83;;;22.10;78.30;;;;;;5050298;28;20476;-51
2022/06/23 01:28:09;;;;;;;16.07;10.97;;;22.10;78.30;;;;;;5034738;28;20465;-51
2022/06/23 01:30:48;;;;;;;20.13;11.90;;;22.10;78.40;;;;;;5048996;28;20939;-51
2022/06/23 01:33:30;;;;;;;16.53;11.63;;;22.10;78.50;;;;;;5050493;28;20461;-51
2022/06/23 01:36:02;;;;;;;12.90;11.00;;;22.00;78.60;;;;;;5056294;28;20466;-51
2022/06/23 01:38:37;;;;;;;16.73;10.33;;;22.00;78.70;;;;;;5051928;28;20500;-51
2022/06/23 01:41:13;;;;;;;15.27;11.23;;;22.00;78.70;;;;;;5050988;28;20465;-51
2022/06/23 01:43:49;;;;;;;19.67;11.33;;;22.00;78.70;;;;;;5021987;28;20869;-51
2022/06/23 01:46:23;;;;;;;17.60;11.07;;;21.90;78.70;;;;;;5035133;28;20541;-51
2022/06/23 01:48:56;;;;;;;11.80;10.27;;;21.90;78.70;;;;;;5020929;28;20662;-51
2022/06/23 01:51:29;;;;;;;18.10;11.23;;;21.90;78.80;;;;;;5035712;28;20577;-51
2022/06/23 01:54:19;;;;;;;21.00;11.20;;;21.90;78.80;;;;;;5025922;28;20475;-51
2022/06/23 01:57:20;;;;;;;19.30;12.33;;;21.80;78.80;;;;;;5038360;28;20461;-51
2022/06/23 02:00:08;;;;;;;18.73;12.83;;;21.80;78.90;;;;;;5047124;28;20965;-51
2022/06/23 02:02:58;;;;;;;19.43;11.57;;;21.80;78.90;;;;;;5055673;28;20492;-51
2022/06/23 02:05:40;;;;;;;13.97;11.33;;;21.80;78.90;;;;;;5048876;28;20484;-51
2022/06/23 02:08:28;;;;;;;15.33;11.10;;;21.70;79.00;;;;;;5053080;28;20456;-51
2022/06/23 02:11:01;;;;;;;16.80;10.43;;;21.70;79.00;;;;;;5029170;28;20469;-51
2022/06/23 02:13:48;;;;;;;15.63;10.23;;;21.70;78.40;;;;;;5052553;28;20648;-49
2022/06/23 02:16:24;;;;;;;13.83;10.57;;;21.70;77.90;;;;;;5053805;28;20543;-47
2022/06/23 02:19:25;;;;;;;14.23;9.30;;;21.70;77.40;;;;;;5067250;28;20469;-47
2022/06/23 02:22:11;;;;;;;12.70;9.40;;;21.60;77.20;;;;;;5061425;28;20463;-47
2022/06/23 02:25:15;;;;;;;14.43;10.93;;;21.60;76.90;;;;;;5050721;28;20457;-47
2022/06/23 02:28:03;;;;;;;17.87;11.23;;;21.50;76.80;;;;;;5064477;28;20827;-47
2022/06/23 02:30:41;;;;;;;18.30;12.43;;;21.50;76.80;;;;;;5065300;28;20456;-47
2022/06/23 02:33:30;;;;;;;17.43;10.80;;;21.50;76.70;;;;;;5049667;28;20497;-47
2022/06/23 02:36:13;;;;;;;17.47;11.03;;;21.40;77.00;;;;;;5059094;28;20496;-47
2022/06/23 02:38:42;;;;;;;14.80;11.00;;;21.40;77.30;;;;;;5060701;28;20504;-47
2022/06/23 02:41:18;;;;;;;12.50;9.77;;;21.30;77.60;;;;;;5059362;28;20486;-47
2022/06/23 02:44:17;;;;;;;16.80;10.80;;;21.30;77.80;;;;;;5042921;28;20481;-47
2022/06/23 02:47:19;;;;;;;19.97;10.53;;;21.20;77.90;;;;;;5052877;28;20464;-48
2022/06/23 02:50:33;;;;;;;17.93;11.27;;;21.20;78.00;;;;;;5019519;28;20544;-47
2022/06/23 02:53:06;;;;;;;20.33;11.20;;;21.20;78.20;;;;;;4976513;28;20457;-49
2022/06/23 02:55:48;;;;;;;15.50;11.20;;;21.10;78.50;;;;;;4978854;28;20561;-49
2022/06/23 02:58:23;;;;;;;18.17;12.80;;;21.10;78.90;;;;;;5009309;28;20970;-49
2022/06/23 03:01:19;;;;;;;16.03;12.67;;;21.10;79.00;;;;;;5054296;28;20481;-49
2022/06/23 03:03:54;;;;;;;21.03;11.43;;;21.10;79.40;;;;;;5056126;28;20482;-49
2022/06/23 03:06:45;;;;;;;21.33;13.30;;;21.10;79.60;;;;;;5054939;28;20964;-49
2022/06/23 03:09:43;;;;;;;20.83;12.53;;;21.10;79.80;;;;;;5048291;28;20455;-48
2022/06/23 03:12:12;;;;;;;17.93;14.07;;;21.00;79.80;;;;;;5060638;28;20467;-48
2022/06/23 03:14:42;;;;;;;18.40;12.73;;;21.00;79.90;;;;;;5060016;28;20464;-49
2022/06/23 03:17:20;;;;;;;20.30;13.57;;;21.00;80.10;;;;;;5058180;28;20540;-49
2022/06/23 03:19:54;;;;;;;22.00;14.00;;;21.00;80.20;;;;;;5060458;28;20547;-49
2022/06/23 03:22:45;;;;;;;16.77;13.90;;;21.00;80.40;;;;;;5062043;28;20529;-49
2022/06/23 03:25:24;;;;;;;21.10;14.43;;;21.00;80.40;;;;;;5050155;28;20537;-49
2022/06/23 03:28:13;;;;;;;21.87;15.17;;;21.00;80.50;;;;;;5063821;28;20452;-49
2022/06/23 03:31:11;;;;;;;22.03;15.93;;;21.00;80.60;;;;;;5055710;28;20489;-49
2022/06/23 03:33:57;;;;;;;22.17;16.53;;;21.00;80.60;;;;;;5045928;28;20454;-49
2022/06/23 03:36:34;;;;;;;19.47;13.53;;;21.00;80.70;;;;;;5047217;28;20445;-49
2022/06/23 03:42:28;;;;;;;13.97;10.37;;;21.00;79.90;;;;;;5056440;28;20458;-49
2022/06/23 03:45:20;;;;;;;19.30;12.17;;;21.00;79.40;;;;;;5051014;28;20983;-49
2022/06/23 03:48:11;;;;;;;19.53;12.90;;;20.90;79.10;;;;;;5058170;28;20473;-49
2022/06/23 03:51:07;;;;;;;21.77;13.37;;;20.90;78.70;;;;;;5058747;28;20454;-48
2022/06/23 03:53:44;;;;;;;20.77;13.87;;;20.90;78.70;;;;;;5022767;28;20462;-49
2022/06/23 03:56:17;;;;;;;16.83;12.50;;;20.90;78.60;;;;;;5058502;28;20469;-49
2022/06/23 03:58:57;;;;;;;22.13;14.47;;;20.90;78.70;;;;;;5060969;28;20448;-49
2022/06/23 04:01:51;;;;;;;20.97;14.60;;;20.80;78.80;;;;;;5060999;28;20461;-49
2022/06/23 04:04:25;;;;;;;24.93;15.43;;;20.80;78.80;;;;;;5063740;28;20532;-49
2022/06/23 04:06:55;;;;;;;21.77;14.30;;;20.80;79.00;;;;;;5064268;28;20429;-49
2022/06/23 04:09:36;;;;;;;19.23;13.73;;;20.80;79.10;;;;;;5036927;28;20941;-48
2022/06/23 04:12:15;;;;;;;18.13;13.23;;;20.70;79.20;;;;;;5058208;28;20454;-49
2022/06/23 04:14:52;;;;;;;19.27;14.10;;;20.70;79.40;;;;;;5030004;28;20981;-49
2022/06/23 04:17:34;;;;;;;21.20;13.67;;;20.80;79.70;;;;;;5061230;28;20451;-49
2022/06/23 04:20:12;;;;;;;22.73;12.80;;;20.70;79.70;;;;;;5062394;28;20529;-49
2022/06/23 04:23:11;;;;;;;19.23;15.13;;;20.70;79.80;;;;;;5058173;28;20465;-48
2022/06/23 04:25:48;;;;;;;21.23;13.40;;;20.80;80.00;;;;;;5054014;28;20554;-49
2022/06/23 04:28:33;;;;;;;16.53;11.93;;;20.80;80.40;;;;;;5063902;28;20481;-49
2022/06/23 04:31:04;;;;;;;15.23;12.33;;;20.80;80.40;;;;;;5059252;28;20981;-49
2022/06/23 04:33:38;;;;;;;20.70;14.10;;;20.80;80.60;;;;;;5044788;28;20441;-49
2022/06/23 04:36:06;;;;;;;21.10;16.07;;;20.80;80.70;;;;;;5047664;28;20445;-48
2022/06/23 04:38:49;;;;;;;18.97;14.00;;;20.90;80.70;;;;;;5062468;28;20940;-49
2022/06/23 04:41:28;;;;;;;19.97;14.63;;;20.90;80.70;;;;;;5061759;28;20445;-49
2022/06/23 04:43:55;;;;;;;20.80;14.93;;;20.90;80.70;;;;;;5045382;28;20618;-49
2022/06/23 04:46:38;;;;;;;25.60;17.10;;;20.90;80.90;;;;;;5060361;28;20860;-49
2022/06/23 04:49:27;;;;;;;16.87;14.80;;;21.00;80.90;;;;;;5058760;28;20446;-49
2022/06/23 04:52:19;;;;;;;26.37;17.77;;;21.00;80.80;;;;;;5060584;28;20462;-49
2022/06/23 04:55:00;;;;;;;26.10;15.63;;;21.10;80.60;;;;;;5051099;28;20993;-48
2022/06/23 04:57:33;;;;;;;22.80;17.30;;;21.10;80.40;;;;;;5045158;28;20441;-49
2022/06/23 05:00:02;;;;;;;22.67;16.50;;;21.20;80.30;;;;;;5037924;28;20492;-49
2022/06/23 05:02:35;;;;;;;20.17;13.90;;;21.20;80.20;;;;;;5044604;28;20485;-49
2022/06/23 05:05:09;;;;;;;29.60;15.77;;;21.20;80.10;;;;;;5053985;28;20589;-49
2022/06/23 05:08:14;;;;;;;18.77;15.60;;;21.20;80.20;;;;;;5047442;28;20462;-49
2022/06/23 05:10:52;;;;;;;24.80;16.63;;;21.30;80.10;;;;;;5032128;28;20981;-49
2022/06/23 05:13:25;;;;;;;24.80;17.30;;;21.30;80.00;;;;;;5058053;28;20964;-49
2022/06/23 05:16:06;;;;;;;31.30;16.67;;;21.30;79.80;;;;;;5047755;28;21252;-49
2022/06/23 05:18:39;;;;;;;20.03;15.77;;;21.40;79.80;;;;;;5037950;28;20458;-49
2022/06/23 05:21:13;;;;;;;23.40;17.10;;;21.40;79.60;;;;;;5043054;28;20452;-49
2022/06/23 05:23:44;;;;;;;19.20;16.67;;;21.40;79.60;;;;;;5045751;28;20486;-49
2022/06/23 05:26:24;;;;;;;24.97;16.07;;;21.50;79.20;;;;;;5046496;28;20458;-49
2022/06/23 05:28:58;;;;;;;25.87;16.77;;;21.50;79.10;;;;;;5056706;28;20457;-49
2022/06/23 05:31:31;;;;;;;25.60;17.47;;;21.60;79.10;;;;;;5055235;28;20456;-49
2022/06/23 05:34:07;;;;;;;25.83;18.10;;;21.60;79.00;;;;;;5058639;28;20503;-49
2022/06/23 05:36:44;;;;;;;19.53;14.47;;;21.60;78.90;;;;;;5066024;28;20444;-48
2022/06/23 05:39:31;;;;;;;21.33;16.30;;;21.70;78.90;;;;;;5056347;28;20481;-49
2022/06/23 05:42:06;;;;;;;22.40;16.50;;;21.70;78.90;;;;;;5050573;28;20785;-49
2022/06/23 05:44:43;;;;;;;26.10;16.93;;;21.80;78.20;;;;;;5030640;28;20891;-48
2022/06/23 05:47:13;;;;;;;20.37;15.87;;;21.80;78.00;;;;;;5054448;28;20458;-49
2022/06/23 05:49:44;;;;;;;20.77;14.93;;;21.80;77.60;;;;;;5063180;28;20467;-48
2022/06/23 05:52:29;;;;;;;17.47;13.43;;;21.90;77.50;;;;;;5059921;28;20943;-48
2022/06/23 05:55:25;;;;;;;21.03;13.03;;;21.90;77.20;;;;;;5058388;28;20465;-48
2022/06/23 05:58:13;;;;;;;15.83;12.93;;;22.00;77.10;;;;;;5059518;28;20510;-49
2022/06/23 06:00:58;;;;;;;25.13;12.70;;;22.00;77.10;;;;;;5063487;28;21189;-48
2022/06/23 06:03:31;;;;;;;17.83;12.23;;;22.00;77.10;;;;;;5061137;28;20515;-49
2022/06/23 06:06:01;;;;;;;18.13;13.07;;;22.10;76.80;;;;;;5058066;28;20474;-48
2022/06/23 06:11:43;;;;;;;20.80;14.20;;;22.20;76.30;;;;;;5057627;28;20458;-48
2022/06/23 06:14:15;;;;;;;17.13;14.30;;;22.30;76.10;;;;;;5043529;28;20461;-49
2022/06/23 06:16:42;;;;;;;22.33;14.90;;;22.30;75.80;;;;;;5045330;28;20465;-49
2022/06/23 06:19:21;;;;;;;16.87;14.20;;;22.30;76.00;;;;;;5040040;28;20549;-49
2022/06/23 06:21:54;;;;;;;19.53;16.03;;;22.40;76.00;;;;;;5041268;28;20471;-49
2022/06/23 06:24:34;;;;;;;20.23;15.63;;;22.40;76.00;;;;;;5064234;28;20484;-49
2022/06/23 06:27:04;;;;;;;16.50;12.37;;;22.50;75.90;;;;;;5058979;28;20449;-49
2022/06/23 06:29:37;;;;;;;19.03;16.30;;;22.50;75.70;;;;;;5061842;28;20449;-49
2022/06/23 06:32:28;;;;;;;19.03;15.27;;;22.60;75.90;;;;;;5060870;28;20442;-49
2022/06/23 06:35:26;;;;;;;25.20;20.60;;;22.70;75.60;;;;;;5060758;28;20445;-49
2022/06/23 06:38:00;;;;;;;26.83;19.43;;;22.80;75.70;;;;;;5051507;28;20816;-49
2022/06/23 06:40:28;;;;;;;22.47;18.50;;;22.90;75.40;;;;;;5066352;28;21045;-49
2022/06/23 06:42:59;;;;;;;30.90;19.80;;;23.00;75.40;;;;;;5060660;28;20452;-49
2022/06/23 06:45:31;;;;;;;27.80;19.50;;;23.10;75.10;;;;;;5061917;28;20842;-48
2022/06/23 06:47:58;;;;;;;29.23;18.43;;;23.10;74.70;;;;;;5062422;28;20447;-49
2022/06/23 06:50:33;;;;;;;21.00;14.97;;;23.20;74.30;;;;;;5047983;28;20487;-49
2022/06/23 06:53:06;;;;;;;19.40;16.20;;;23.30;73.80;;;;;;5059473;28;20450;-49
2022/06/23 06:55:41;;;;;;;22.50;17.87;;;23.40;73.90;;;;;;5059596;28;20907;-49
2022/06/23 06:58:31;;;;;;;27.37;18.47;;;23.50;73.90;;;;;;5062339;28;20521;-49
2022/06/23 07:01:05;;;;;;;23.10;20.07;;;23.60;73.70;;;;;;5046732;28;20557;-49
2022/06/23 07:03:35;;;;;;;24.10;18.67;;;23.70;73.60;;;;;;5060938;28;20575;-49
2022/06/23 07:06:36;;;;;;;29.17;22.03;;;23.80;73.40;;;;;;5046906;28;20468;-49
2022/06/23 07:09:28;;;;;;;25.50;20.53;;;23.90;73.10;;;;;;5020898;28;20453;-49
2022/06/23 07:12:04;;;;;;;30.70;23.40;;;24.00;73.00;;;;;;5061740;28;20457;-49
2022/06/23 07:14:49;;;;;;;29.13;21.00;;;24.00;72.90;;;;;;5041897;28;20698;-49
2022/06/23 07:17:22;;;;;;;28.90;21.73;;;24.20;73.10;;;;;;5040419;28;20469;-49
2022/06/23 07:20:19;;;;;;;24.77;19.80;;;24.30;72.80;;;;;;5040310;28;20466;-49
2022/06/23 07:23:03;;;;;;;30.20;19.60;;;24.50;71.80;;;;;;5057745;28;20469;-49
2022/06/23 07:25:35;;;;;;;26.10;18.63;;;24.60;71.30;;;;;;5055878;28;20493;-49
2022/06/23 07:28:06;;;;;;;27.17;20.43;;;24.70;71.00;;;;;;5057287;28;21029;-49
2022/06/23 07:30:42;;;;;;;32.27;22.30;;;24.80;70.80;;;;;;5059749;28;20540;-49
2022/06/23 07:33:22;;;;;;;30.87;23.20;;;25.00;70.00;;;;;;5058046;28;20580;-49
2022/06/23 07:36:00;;;;;;;24.40;18.83;;;25.10;69.70;;;;;;5059738;28;20535;-49
2022/06/23 07:38:47;;;;;;;23.33;17.13;;;25.20;69.60;;;;;;5053798;28;20615;-49
2022/06/23 07:41:27;;;;;;;21.53;16.30;;;25.30;69.40;;;;;;5040052;28;20553;-49
2022/06/23 07:44:18;;;;;;;21.03;17.00;;;25.50;68.90;;;;;;5054711;28;20484;-49
2022/06/23 07:46:45;;;;;;;20.77;14.43;;;25.70;68.10;;;;;;5056341;28;20545;-49
2022/06/23 07:49:12;;;;;;;14.23;12.73;;;25.80;67.50;;;;;;5061625;28;20492;-49
2022/06/23 07:51:40;;;;;;;18.00;14.33;;;26.00;67.30;;;;;;5060967;28;20954;-49
2022/06/23 07:54:09;;;;;;;18.53;15.50;;;26.20;66.90;;;;;;5059108;28;20460;-49
2022/06/23 07:56:39;;;;;;;15.80;13.10;;;26.30;65.80;;;;;;5041443;28;20825;-49
2022/06/23 07:59:11;;;;;;;16.60;13.73;;;26.50;66.00;;;;;;5058087;28;20548;-49
2022/06/23 08:01:51;;;;;;;18.97;13.20;;;26.60;65.00;;;;;;5058302;28;20538;-49
2022/06/23 08:04:37;;;;;;;19.23;14.70;;;26.70;64.70;;;;;;5055280;28;20730;-49
2022/06/23 08:07:10;;;;;;;21.40;13.07;;;26.90;64.30;;;;;;5042697;28;20452;-49
2022/06/23 08:09:51;;;;;;;15.47;12.13;;;27.00;64.20;;;;;;5054688;28;20659;-49
2022/06/23 08:18:59;;;;;;;17.30;12.30;;;27.40;62.30;;;;;;5038844;28;20845;-50
2022/06/23 08:21:31;;;;;;;14.10;11.60;;;27.30;62.50;;;;;;5057819;28;20571;-49
2022/06/23 08:24:14;;;;;;;13.50;10.93;;;27.50;62.40;;;;;;5040034;28;20792;-49
2022/06/23 08:26:45;;;;;;;14.20;9.87;;;27.60;62.20;;;;;;5053098;28;20543;-49
2022/06/23 08:29:16;;;;;;;13.10;10.63;;;27.80;62.00;;;;;;5032625;28;20242;-49
2022/06/23 08:31:43;;;;;;;9.80;8.80;;;28.00;61.40;;;;;;5042575;28;20717;-49
2022/06/23 08:34:28;;;;;;;20.53;10.40;;;28.10;60.60;;;;;;5041601;28;20204;-49
2022/06/23 08:37:03;;;;;;;14.60;10.47;;;28.20;59.90;;;;;;5041525;28;20589;-49
2022/06/23 08:39:45;;;;;;;13.33;10.90;;;28.30;60.10;;;;;;5055621;28;20215;-49
2022/06/23 08:42:38;;;;;;;16.77;10.20;;;28.30;60.00;;;;;;5056129;28;20763;-49
2022/06/23 08:45:32;;;;;;;15.07;10.40;;;28.50;60.20;;;;;;5059285;28;20269;-49
2022/06/23 08:48:02;;;;;;;13.43;10.57;;;28.70;59.70;;;;;;5055670;28;20213;-49
2022/06/23 08:50:53;;;;;;;11.10;8.47;;;28.80;59.30;;;;;;5058341;28;20241;-49
2022/06/23 08:53:44;;;;;;;11.30;8.30;;;28.80;59.10;;;;;;5057959;28;20245;-49
2022/06/23 08:56:23;;;;;;;12.82;9.77;;;28.90;59.10;;;;;;5046890;28;20203;-49
2022/06/23 08:58:56;;;;;;;14.50;9.63;;;29.00;58.60;;;;;;5061416;28;20206;-49
2022/06/23 09:01:37;;;;;;;15.80;10.07;;;29.10;58.20;;;;;;5061420;28;20313;-49
2022/06/23 09:04:14;;;;;;;12.17;8.67;;;29.10;58.20;;;;;;5059896;28;20219;-49
2022/06/23 09:06:57;;;;;;;10.60;9.10;;;29.30;58.10;;;;;;5059190;28;20206;-49
2022/06/23 09:09:36;;;;;;;11.65;8.15;;;29.40;57.90;;;;;;5060905;28;20199;-49
2022/06/23 09:12:30;;;;;;;11.20;9.63;;;29.60;57.30;;;;;;5061724;28;20285;-49
2022/06/23 09:15:45;;;;;;;15.38;9.23;;;29.70;57.20;;;;;;5041287;28;20310;-49
2022/06/23 09:18:49;;;;;;;9.63;8.43;;;29.70;57.20;;;;;;5057271;28;20610;-49
2022/06/23 09:21:30;;;;;;;11.35;9.35;;;29.80;56.60;;;;;;5057832;28;20363;-49
2022/06/23 09:24:12;;;;;;;14.05;8.68;;;29.90;56.20;;;;;;5063810;28;20319;-49
2022/06/23 09:26:40;;;;;;;11.25;9.32;;;29.90;56.20;;;;;;5060065;28;20681;-49
2022/06/23 09:29:52;;;;;;;11.32;9.32;;;29.90;56.10;;;;;;5033625;28;20655;-49
2022/06/23 09:32:22;;;;;;;11.10;9.40;;;30.00;56.40;;;;;;5035194;28;20432;-49
2022/06/23 09:35:20;;;;;;;10.32;8.38;;;30.10;56.10;;;;;;5054199;28;20721;-49
2022/06/23 09:38:08;;;;;;;10.45;9.35;;;30.10;56.10;;;;;;5061555;28;20210;-49
2022/06/23 09:40:42;;;;;;;10.60;8.57;;;30.20;56.00;;;;;;5046647;28;20203;-49
2022/06/23 09:43:33;;;;;;;9.20;8.30;;;30.50;55.40;;;;;;5062814;28;20669;-49
2022/06/23 09:46:27;;;;;;;11.82;9.65;;;30.50;54.50;;;;;;5058866;28;20222;-49
2022/06/23 09:49:08;;;;;;;9.68;8.18;;;30.50;54.30;;;;;;5031256;28;20215;-49
2022/06/23 09:52:04;;;;;;;10.48;9.27;;;30.40;54.80;;;;;;5058492;28;20206;-49
2022/06/23 09:54:46;;;;;;;11.18;9.43;;;30.40;54.90;;;;;;5036556;28;20206;-48
2022/06/23 09:57:48;;;;;;;14.15;10.73;;;30.30;54.90;;;;;;5055481;28;20215;-49
2022/06/23 10:00:19;;;;;;;13.48;9.25;;;30.20;55.40;;;;;;5048865;28;22080;-49
2022/06/23 10:03:18;;;;;;;11.43;9.32;;;30.30;55.60;;;;;;5054546;28;20218;-49
2022/06/23 10:06:03;;;;;;;13.13;10.52;;;30.30;55.20;;;;;;5052935;28;20227;-49
2022/06/23 10:08:39;;;;;;;11.25;9.48;;;30.10;55.60;;;;;;5054087;28;20203;-49
2022/06/23 10:11:13;;;;;;;11.70;9.38;;;30.20;55.80;;;;;;5049527;28;20298;-49
2022/06/23 10:13:53;;;;;;;15.30;10.63;;;30.30;55.20;;;;;;5060955;28;20215;-49
2022/06/23 10:16:38;;;;;;;12.20;9.93;;;30.30;55.00;;;;;;5065318;28;20249;-50
2022/06/23 10:19:42;;;;;;;10.85;9.80;;;30.10;55.40;;;;;;5060512;28;20331;-50
2022/06/23 10:22:43;;;;;;;13.93;9.27;;;30.10;55.80;;;;;;5062144;28;20604;-49
2022/06/23 10:26:00;;;;;;;10.23;9.07;;;30.30;55.10;;;;;;5056455;28;20219;-49
2022/06/23 10:28:44;;;;;;;11.65;9.80;;;30.50;54.60;;;;;;4959280;28;20673;-50
2022/06/23 10:31:29;;;;;;;11.80;10.10;;;30.60;54.40;;;;;;5051649;28;20321;-50
2022/06/23 10:34:02;;;;;;;11.23;9.95;;;30.90;53.50;;;;;;5060212;28;20199;-48
2022/06/23 10:36:41;;;;;;;13.98;10.63;;;31.00;53.10;;;;;;5055085;28;20210;-48
2022/06/23 10:39:45;;;;;;;15.18;9.55;;;31.00;53.30;;;;;;5040887;28;20211;-50
2022/06/23 10:42:55;;;;;;;13.52;10.32;;;31.10;53.30;;;;;;5051964;28;20678;-50
2022/06/23 10:45:40;;;;;;;11.10;9.38;;;30.90;53.60;;;;;;5060237;28;20230;-50
2022/06/23 10:48:38;;;;;;;15.05;10.18;;;30.80;53.50;;;;;;5056503;28;20206;-50
2022/06/23 10:51:42;;;;;;;11.90;9.70;;;30.70;53.50;;;;;;5060082;28;20207;-50
2022/06/23 10:54:39;;;;;;;14.15;9.88;;;30.50;53.90;;;;;;5062747;28;20253;-50
2022/06/23 10:57:18;;;;;;;10.63;9.23;;;30.40;54.60;;;;;;5042712;28;20206;-50
2022/06/23 10:59:59;;;;;;;17.17;10.07;;;30.20;54.70;;;;;;5062003;28;20222;-50
2022/06/23 11:02:32;;;;;;;11.18;8.82;;;30.10;55.20;;;;;;5060646;28;20588;-50
2022/06/23 11:05:03;;;;;;;13.30;10.20;;;30.10;55.60;;;;;;5059805;28;20704;-50
2022/06/23 11:07:39;;;;;;;10.93;9.32;;;30.00;55.50;;;;;;5057215;28;20203;-49
2022/06/23 11:10:41;;;;;;;14.93;11.20;;;29.90;55.20;;;;;;5058537;28;20201;-49
2022/06/23 11:13:36;;;;;;;10.90;9.80;;;29.90;56.00;;;;;;5044762;28;20629;-49
2022/06/23 11:16:38;;;;;;;15.45;9.82;;;29.90;55.90;;;;;;5050573;28;20264;-50
2022/06/23 11:19:34;;;;;;;13.68;10.57;;;29.80;55.40;;;;;;5048137;28;20210;-50
2022/06/23 11:22:09;;;;;;;12.35;9.13;;;29.80;55.50;;;;;;5054925;28;20215;-50
2022/06/23 11:25:12;;;;;;;11.63;10.02;;;29.70;55.90;;;;;;5059953;28;20230;-50
2022/06/23 11:27:44;;;;;;;13.25;9.70;;;29.70;55.80;;;;;;5001189;28;20327;-50
2022/06/23 11:30:24;;;;;;;12.85;8.40;;;29.70;55.80;;;;;;5047601;28;20233;-50
2022/06/23 11:33:09;;;;;;;14.77;8.80;;;29.60;55.50;;;;;;5063224;28;20667;-50
2022/06/23 11:35:51;;;;;;;14.48;9.65;;;29.50;55.70;;;;;;5050803;28;20214;-50
2022/06/23 11:38:45;;;;;;;13.00;8.50;;;29.50;56.10;;;;;;5052322;28;20623;-50
2022/06/23 11:41:27;;;;;;;10.65;8.88;;;29.60;56.00;;;;;;5060422;28;20453;-50
2022/06/23 11:44:26;;;;;;;12.95;10.20;;;29.60;55.90;;;;;;5062291;28;20568;-50
2022/06/23 11:47:17;;;;;;;12.82;10.65;;;29.50;56.00;;;;;;5027232;28;20214;-50
2022/06/23 11:50:12;;;;;;;14.05;9.25;;;29.50;56.20;;;;;;5056381;28;20208;-50
2022/06/23 11:52:51;;;;;;;9.43;8.32;;;29.50;55.60;;;;;;5055907;28;20218;-50
2022/06/23 11:55:23;;;;;;;11.95;8.63;;;29.40;55.10;;;;;;5055988;28;20725;-50
2022/06/23 11:58:14;;;;;;;12.40;8.90;;;29.40;55.40;;;;;;5057837;28;20309;-50
2022/06/23 12:00:41;;;;;;;11.32;8.77;;;29.50;55.70;;;;;;5040460;28;20241;-50
2022/06/23 12:03:43;;;;;;;15.00;8.07;;;29.50;55.30;;;;;;5062114;28;20203;-50
2022/06/23 12:06:16;;;;;;;8.57;7.72;;;29.50;54.90;;;;;;5040153;28;20233;-50
2022/06/23 12:08:49;;;;;;;9.07;7.95;;;29.50;54.30;;;;;;5057477;28;20211;-50
2022/06/23 12:11:16;;;;;;;8.57;7.63;;;29.50;55.00;;;;;;5046281;28;20289;-50
2022/06/23 12:13:43;;;;;;;13.93;8.35;;;29.50;55.10;;;;;;5063774;28;20307;-50
2022/06/23 12:16:10;;;;;;;11.05;8.77;;;29.50;54.80;;;;;;5046567;28;20238;-50
2022/06/23 12:18:58;;;;;;;13.48;7.55;;;29.50;55.10;;;;;;5043850;28;20578;-50
2022/06/23 12:21:42;;;;;;;13.02;9.05;;;29.60;55.00;;;;;;5056105;28;20586;-50
2022/06/23 12:24:33;;;;;;;10.73;8.75;;;29.70;55.00;;;;;;5037843;28;20661;-50
2022/06/23 12:27:23;;;;;;;10.63;8.07;;;29.70;54.00;;;;;;5049965;28;20582;-50
2022/06/23 12:30:02;;;;;;;12.25;7.55;;;29.80;54.10;;;;;;5057812;28;20206;-50
2022/06/23 12:32:54;;;;;;;8.75;7.68;;;29.80;54.10;;;;;;5058824;28;20203;-50
2022/06/23 12:35:25;;;;;;;7.95;6.82;;;29.80;53.90;;;;;;5054653;28;20207;-50
2022/06/23 12:37:58;;;;;;;11.75;8.07;;;29.80;53.80;;;;;;5048230;28;20778;-50
2022/06/23 12:40:49;;;;;;;9.88;7.50;;;29.90;53.90;;;;;;5058789;28;20214;-50
2022/06/23 12:43:28;;;;;;;13.15;7.57;;;29.80;53.10;;;;;;5040194;28;20234;-48
2022/06/23 12:46:01;;;;;;;17.92;7.63;;;29.80;53.00;;;;;;5044712;28;20668;-47
2022/06/23 12:48:53;;;;;;;10.90;8.55;;;29.80;53.30;;;;;;5061415;28;20289;-47
2022/06/23 12:51:48;;;;;;;10.20;7.20;;;29.90;53.50;;;;;;5059078;28;20204;-48
2022/06/23 12:54:41;;;;;;;10.48;7.47;;;30.00;53.70;;;;;;5061508;28;20435;-47
2022/06/23 12:57:45;;;;;;;9.82;7.05;;;30.00;53.00;;;;;;5061245;28;20577;-51
2022/06/23 13:00:15;;;;;;;7.90;7.07;;;30.00;52.60;;;;;;5063001;28;20226;-52
2022/06/23 13:02:49;;;;;;;9.18;6.90;;;30.00;52.70;;;;;;5053844;28;20285;-49
2022/06/23 13:05:39;;;;;;;8.13;6.50;;;30.00;52.50;;;;;;5051924;28;20230;-49
2022/06/23 13:08:16;;;;;;;7.40;6.70;;;30.10;52.10;;;;;;5056033;28;20215;-47
2022/06/23 13:10:49;;;;;;;14.32;7.15;;;30.20;52.00;;;;;;5052821;28;20734;-47
2022/06/23 13:13:35;;;;;;;9.25;7.45;;;30.20;52.30;;;;;;5040898;28;20199;-47
2022/06/23 13:16:09;;;;;;;6.82;6.07;;;30.20;51.80;;;;;;5046780;28;20618;-47
2022/06/23 13:18:39;;;;;;;10.85;7.97;;;30.10;51.50;;;;;;5055424;28;20210;-47
2022/06/23 13:21:05;;;;;;;8.43;7.10;;;30.10;51.80;;;;;;5052667;28;20832;-47
2022/06/23 13:23:37;;;;;;;7.38;6.68;;;30.10;51.50;;;;;;5055920;28;20221;-48
2022/06/23 13:26:25;;;;;;;6.57;5.97;;;30.20;51.30;;;;;;5053802;28;20228;-47
2022/06/23 13:29:11;;;;;;;9.15;6.25;;;30.30;51.20;;;;;;5056146;28;20689;-47
2022/06/23 13:32:07;;;;;;;8.68;6.93;;;30.20;50.90;;;;;;5041681;28;20203;-48
2022/06/23 13:34:46;;;;;;;7.45;6.32;;;30.20;51.10;;;;;;5056037;28;20234;-48
2022/06/23 13:37:27;;;;;;;9.68;7.43;;;30.20;51.10;;;;;;5049796;28;20215;-49
2022/06/23 13:40:19;;;;;;;11.05;6.93;;;30.30;51.10;;;;;;5043919;28;20671;-49
2022/06/23 13:43:07;;;;;;;7.30;6.45;;;30.40;51.20;;;;;;5057855;28;20335;-48
2022/06/23 13:45:40;;;;;;;7.85;5.97;;;30.50;51.30;;;;;;5043606;28;20599;-48
2022/06/23 13:48:32;;;;;;;9.70;6.07;;;30.60;50.80;;;;;;5063491;28;20199;-48
2022/06/23 13:51:17;;;;;;;6.90;5.63;;;30.60;50.30;;;;;;5067798;28;20234;-50
2022/06/23 13:54:00;;;;;;;8.48;5.90;;;30.70;50.10;;;;;;5053206;28;20241;-50
2022/06/23 13:56:34;;;;;;;7.20;6.35;;;30.70;50.40;;;;;;5048437;28;20229;-50